Cebollita Spring, Valles Caldera, New Mexico Weather observations

Data are for 10 minute period ending at time listed.
 Day   Time   Solar   Ave.   Ave.  Ave.  Vector  Max.   Baro.   Total    
  of    of     Rad.   Air    Rel.  Wind   Wind   Wind  Press.  Precip.   
Year   Day            Temp.  Hum.  Speed  Dir.   Gust                    
2015   (MST)  Kw/m2    F      %     mph   deg.    mph    mb.     in.     
-------------------------------------------------------------------------
 110   13:30   0.76   55.7    20   11.3   258    23.9   99999.0    0.00 
 110   13:40   0.59   56.0    20    8.8   277    20.9   99999.0    0.00 
 110   13:50   0.37   56.0    19   11.3   262    19.7   99999.0    0.00 
 110   14:00   0.70   55.6    20   11.9   265    23.9   99999.0    0.00 
 110   14:10   0.75   57.3    18   11.9   280    20.0   99999.0    0.00 
 110   14:20   0.20   56.4    20   10.0   307    19.7   99999.0    0.00 
 110   14:30   0.16   52.6    23    6.8   268    19.1   99999.0    0.00 
 110   14:40   0.16   52.9    24    9.5   292    23.9   99999.0    0.00 
 110   14:50   0.16   51.6    24    9.5   257    17.9   99999.0    0.00 
 110   15:00   0.30   52.7    21   11.3   289    21.5   99999.0    0.00 
 110   15:10   0.50   54.4    21    7.6   266    14.3   99999.0    0.00 
 110   15:20   0.25   54.6    20    8.2   264    16.1   99999.0    0.00 
 110   15:30   0.58   54.6    21   11.0   241    20.9   99999.0    0.00 
 110   15:40   0.56   55.9    21    9.1   244    16.7   99999.0    0.00 
 110   15:50   0.64   56.8    20   10.4   261    20.9   99999.0    0.00 
 110   16:00   0.29   55.3    19   12.3   277    24.5   99999.0    0.00 
 110   16:10   0.21   53.4    19   10.4   281    20.3   99999.0    0.00 
 110   16:20   0.15   53.5    20    7.2   279    13.7   99999.0    0.00 
 110   16:30   0.13   52.9    22   10.6   286    28.6   99999.0    0.00 
 110   16:40   0.14   51.7    25    9.4   269    20.9   99999.0    0.00 
 110   16:50   0.15   51.2    28    5.7   276    13.1   99999.0    0.00 
 110   17:00   0.11   50.9    29    9.3   254    17.3   99999.0    0.00 
 110   17:10   0.19   50.8    28    9.1   255    18.5   99999.0    0.00 
 110   17:20   0.13   51.0    28    8.7   260    17.9   99999.0    0.00 
 110   17:30   0.04   49.5    29   13.0   293    25.6   99999.0    0.00 
 110   17:40   0.04   48.2    30   10.1   298    19.7   99999.0    0.00 
 110   17:50   0.06   48.2    31    6.9   261    14.3   99999.0    0.00 
 110   18:00   0.06   48.7    29    6.7   268    14.9   99999.0    0.00 
 110   18:10   0.04   48.7    29    4.5   268    10.2   99999.0    0.00 
 110   18:20   0.02   48.3    29    5.5   269    12.5   99999.0    0.00 
 110   18:30   0.02   48.1    27    6.7   262    16.1   99999.0    0.00 
 110   18:40   0.01   48.2    25    7.1   272    14.3   99999.0    0.00 
 110   18:50   0.00   47.8    27    5.0   277     8.4   99999.0    0.00 
 110   19:00   0.00   47.1    28    4.8   273    13.1   99999.0    0.00 
 110   19:10   0.00   46.1    29    3.3   269     7.2   99999.0    0.00 
 110   19:20   0.00   45.3    30    3.0   263     7.2   99999.0    0.00 
 110   19:30   0.00   43.5    32    1.4    45     3.0   99999.0    0.00 
 110   19:40   0.00   40.3    38    1.5     6     3.0   99999.0    0.00 
 110   19:50   0.00   38.1    43    1.4    58     3.0   99999.0    0.00 
 110   20:00   0.00   36.1    48    1.9    35     5.4   99999.0    0.00 
 110   20:10   0.00   34.8    53    2.4    40     4.8   99999.0    0.00 
 110   20:20   0.00   33.7    55    1.5    39     4.8   99999.0    0.00 
 110   20:30   0.00   33.0    57    2.2   355     4.8   99999.0    0.00 
 110   20:40   0.00   33.3    56    2.5    37     6.0   99999.0    0.00 
 110   20:50   0.00   34.3    54    2.4   356     6.0   99999.0    0.00 
 110   21:00   0.00   35.0    53    2.8   336     6.0   99999.0    0.00 
 110   21:10   0.00   36.0    52    2.2    15     5.4   99999.0    0.00 
 110   21:20   0.00   34.4    55    1.8     3     3.6   99999.0    0.00 
 110   21:30   0.00   32.4    59    1.4    32     5.4   99999.0    0.00 
 110   21:40   0.00   31.1    64    2.0    25     3.6   99999.0    0.00 
 110   21:50   0.00   30.5    64    0.2    47     1.2   99999.0    0.00 
 110   22:00   0.00   29.8    66    0.8    15     1.8   99999.0    0.00 
 110   22:10   0.00   29.4    69    1.0    26     2.4   99999.0    0.00 
 110   22:20   0.00   29.1    69    0.5    20     1.8   99999.0    0.00 
 110   22:30   0.00   28.8    70    0.5   359     2.4   99999.0    0.00 
 110   22:40   0.00   28.4    70    1.2   342     3.0   99999.0    0.00 
 110   22:50   0.00   28.3    71    1.9   350     4.2   99999.0    0.00 
 110   23:00   0.00   28.3    71    1.9   356     3.6   99999.0    0.00 
 110   23:10   0.00   28.1    71    1.3     7     3.0   99999.0    0.00 
 110   23:20   0.00   28.0    72    1.2    14     2.4   99999.0    0.00 
 110   23:30   0.00   27.8    73    0.7    16     2.4   99999.0    0.00 
 110   23:40   0.00   27.6    74    0.1    15     1.2   99999.0    0.00 
 110   23:50   0.00   27.2    74    0.0    27     1.2   99999.0    0.00 
 111    0:00   0.00   26.9    75    0.0     0     0.0   99999.0    0.00 
 111    0:10   0.00   26.5    75    0.0     0     0.0   99999.0    0.00 
 111    0:20   0.00   26.2    76    0.0     8     1.2   99999.0    0.00 
 111    0:30   0.00   26.1    76    0.4    15     1.8   99999.0    0.00 
 111    0:40   0.00   26.1    76    0.3    30     1.2   99999.0    0.00 
 111    0:50   0.00   26.0    76    1.2    42     1.8   99999.0    0.00 
 111    1:00   0.00   26.0    77    1.5    44     1.8   99999.0    0.00 
 111    1:10   0.00   26.5    76    1.5    46     2.4   99999.0    0.00 
 111    1:20   0.00   27.2    75    0.7    46     1.2   99999.0    0.00 
 111    1:30   0.00   27.4    74    1.0    42     1.8   99999.0    0.00 
 111    1:40   0.00   27.6    74    1.2    48     1.8   99999.0    0.00 
 111    1:50   0.00   28.0    72    0.9    42     1.8   99999.0    0.00 
 111    2:00   0.00   28.2    72    0.7    42     1.8   99999.0    0.00 
 111    2:10   0.00   28.0    72    0.8    37     1.8   99999.0    0.00 
 111    2:20   0.00   27.6    72    0.6    43     1.8   99999.0    0.00 
 111    2:30   0.00   27.1    72    1.1    36     1.8   99999.0    0.00 
 111    2:40   0.00   26.6    73    1.5    45     2.4   99999.0    0.00 
 111    2:50   0.00   26.1    74    1.8    50     2.4   99999.0    0.00 
 111    3:00   0.00   25.9    75    1.9    54     2.4   99999.0    0.00 
 111    3:10   0.00   25.7    76    1.6    47     2.4   99999.0    0.00 
 111    3:20   0.00   25.5    75    1.6    48     2.4   99999.0    0.00 
 111    3:30   0.00   25.4    75    2.0    65     2.4   99999.0    0.00 
 111    3:40   0.00   25.2    75    2.0    73     2.4   99999.0    0.00 
 111    3:50   0.00   25.2    76    2.1    69     2.4   99999.0    0.00 
 111    4:00   0.00   25.0    76    2.1    66     2.4   99999.0    0.00 
 111    4:10   0.00   25.0    76    1.6    52     2.4   99999.0    0.00 
 111    4:20   0.00   25.0    76    2.1    55     3.0   99999.0    0.00 
 111    4:30   0.00   25.0    76    2.2    56     3.0   99999.0    0.00 
 111    4:40   0.00   24.9    76    2.6    65     3.6   99999.0    0.00 
 111    4:50   0.00   24.8    76    2.0    60     3.6   99999.0    0.00 
 111    5:00   0.00   24.7    76    1.9    67     3.0   99999.0    0.00 
 111    5:10   0.00   24.6    76    2.1    76     3.6   99999.0    0.00 
 111    5:20   0.00   24.6    77    2.1    65     3.0   99999.0    0.00 
 111    5:30   0.01   24.5    78    2.3    60     3.0   99999.0    0.00 
 111    5:40   0.01   24.3    79    1.8    56     3.0   99999.0    0.00 
 111    5:50   0.02   24.3    78    1.3    74     2.4   99999.0    0.00 
 111    6:00   0.03   24.7    78    0.7    63     2.4   99999.0    0.00 
 111    6:10   0.04   25.5    78    0.7    64     2.4   99999.0    0.00 
 111    6:20   0.08   26.1    77    0.6    84     3.0   99999.0    0.00 
 111    6:30   0.19   27.2    77    1.9    73     3.0   99999.0    0.00 
 111    6:40   0.23   29.3    72    1.2    74     2.4   99999.0    0.00 
 111    6:50   0.28   31.8    70    0.6   310     1.8   99999.0    0.00 
 111    7:00   0.32   33.8    62    0.9   330     3.0   99999.0    0.00 
 111    7:10   0.36   36.8    62    0.6   326     1.8   99999.0    0.00 
 111    7:20   0.41   43.1    49    0.4   350     2.4   99999.0    0.00 
 111    7:30   0.45   47.2    34    1.5   282     2.4   99999.0    0.00 
 111    7:40   0.49   49.3    30    1.5   266     2.4   99999.0    0.00 
 111    7:50   0.53   50.5    27    2.1   184     3.6   99999.0    0.00 
 111    8:00   0.58   51.6    27    2.6   165     6.0   99999.0    0.00 
 111    8:10   0.61   52.5    26    2.8   158     4.8   99999.0    0.00 
 111    8:20   0.65   53.3    26    3.3   162     6.6   99999.0    0.00 
 111    8:30   0.69   53.8    24    3.3   156     6.0   99999.0    0.00 
 111    8:40   0.72   54.1    25    3.6   183     7.2   99999.0    0.00 
 111    8:50   0.76   53.8    25    3.2   227     6.6   99999.0    0.00 
 111    9:00   0.79   54.5    24    5.4   234    12.5   99999.0    0.00 
 111    9:10   0.83   55.1    24    5.0   247     9.6   99999.0    0.00 
 111    9:20   0.86   55.7    23    5.5   269    12.5   99999.0    0.00 
 111    9:30   0.88   57.2    23    5.4   256     9.0   99999.0    0.00 
 111    9:40   0.92   57.6    22    5.1   257    10.8   99999.0    0.00 
 111    9:50   0.90   57.5    22    6.1   216    11.3   99999.0    0.00 
 111   10:00   0.62   56.3    23    7.0   254    11.9   99999.0    0.00 
 111   10:10   1.00   56.9    22    5.5   220    14.3   99999.0    0.00 
 111   10:20   0.92   57.1    22    5.4   233    11.9   99999.0    0.00 
 111   10:30   1.01   58.2    20    8.0   248    14.9   99999.0    0.00 
 111   10:40   1.06   59.3    19    7.0   244    14.9   99999.0    0.00 
 111   10:50   1.12   58.8    18    7.7   243    14.3   99999.0    0.00 
 111   11:00   1.11   58.6    18    9.1   233    19.1   99999.0    0.00 
 111   11:10   1.00   58.5    17    6.5   244    11.7   99999.0    0.00 
 111   11:20   1.18   59.8    16    8.7   259    14.9   99999.0    0.00 
 111   11:30   1.15   60.0    16    7.9   244    13.7   99999.0    0.00 
 111   11:40   0.82   59.5    14    8.6   271    14.3   99999.0    0.00 
 111   11:50   0.50   56.9    15    6.8   261    13.1   99999.0    0.00 
 111   12:00   0.89   58.1    16    8.0   272    16.7   99999.0    0.00 
 111   12:10   0.88   58.4    18    6.5   214    16.1   99999.0    0.00 
 111   12:20   1.09   59.5    16    7.2   247    19.7   99999.0    0.00 
 111   12:30   0.96   61.8    15    7.4   243    13.1   99999.0    0.00 
 111   12:40   0.26   57.4    20   12.8   260    23.9   99999.0    0.00 
 111   12:50   0.37   54.6    24   13.1   252    22.1   99999.0    0.00 
 111   13:00   0.36   53.7    26   11.4   238    23.3   99999.0    0.00 
 111   13:10   0.34   53.5    26    9.4   243    17.3   99999.0    0.00 
 111   13:20   0.42   54.3    23    6.5   218    17.9   99999.0    0.00 

Return to Cebollita Spring, Valles Caldera graphs page.


Western Regional Climate Center,wrcc@dri.edu